Time;durP1;ratioP1;P1;durP2;ratioP2;P2;SDS_P1;SDS_P2;PMS_P1;PMS_P2;Temp;Humidity;BMP_temperature;BMP_pressure;BME280_temperature;BME280_humidity;BME280_pressure;Samples;Min_cycle;Max_cycle;Signal;HPM_P1;HPM_P2
2021/12/29 00:02:40;;;;;;;15.05;4.15;;;;;;;8.92;100.00;100181.63;10505310;28;20107;-72
2021/12/29 00:07:40;;;;;;;12.63;4.70;;;;;;;8.94;100.00;100191.22;10503939;28;20111;-72
2021/12/29 00:12:45;;;;;;;16.60;4.88;;;;;;;8.95;100.00;100190.16;10506169;28;20033;-71
2021/12/29 00:17:46;;;;;;;11.90;3.67;;;;;;;8.94;100.00;100202.00;10506188;28;20025;-72
2021/12/29 00:22:46;;;;;;;4.10;3.55;;;;;;;8.91;100.00;100224.00;10504566;28;20079;-73
2021/12/29 00:27:47;;;;;;;16.67;4.82;;;;;;;8.84;100.00;100221.31;10503547;28;20056;-72
2021/12/29 00:32:48;;;;;;;5.38;2.60;;;;;;;8.89;100.00;100227.94;10504276;28;20423;-72
2021/12/29 00:37:48;;;;;;;12.70;4.32;;;;;;;8.93;100.00;100235.44;10503282;28;20230;-72
2021/12/29 00:42:48;;;;;;;7.72;4.43;;;;;;;8.93;100.00;100231.91;10519597;28;20490;-73
2021/12/29 00:47:50;;;;;;;6.97;3.97;;;;;;;8.92;100.00;100241.03;10504892;28;20080;-73
2021/12/29 00:52:51;;;;;;;16.75;5.65;;;;;;;8.91;100.00;100266.38;10503504;28;20039;-74
2021/12/29 00:57:51;;;;;;;12.70;6.45;;;;;;;8.92;100.00;100257.25;10501803;28;20498;-72
2021/12/29 01:02:52;;;;;;;6.43;3.83;;;;;;;8.90;100.00;100275.50;10504223;28;20162;-72
2021/12/29 01:07:52;;;;;;;9.95;4.60;;;;;;;8.96;100.00;100290.91;10501713;28;20028;-73
2021/12/29 01:12:57;;;;;;;7.07;2.05;;;;;;;8.96;100.00;100301.69;10518422;28;20400;-71
2021/12/29 01:17:58;;;;;;;12.80;4.35;;;;;;;8.96;100.00;100307.94;10503493;28;20120;-72
2021/12/29 01:22:59;;;;;;;8.82;3.20;;;;;;;8.96;100.00;100324.13;10518007;28;20045;-73
2021/12/29 01:27:59;;;;;;;7.43;3.47;;;;;;;8.95;100.00;100327.06;10501385;28;20040;-72
2021/12/29 01:33:05;;;;;;;15.60;5.10;;;;;;;8.92;100.00;100340.94;10501978;28;20056;-72
2021/12/29 01:38:06;;;;;;;15.98;3.85;;;;;;;8.95;100.00;100354.88;10502130;28;20044;-72
2021/12/29 01:43:07;;;;;;;10.43;3.25;;;;;;;8.97;100.00;100358.22;10500238;28;20043;-72
2021/12/29 01:48:08;;;;;;;11.45;5.40;;;;;;;8.96;100.00;100355.72;10516989;28;20040;-71
2021/12/29 01:53:10;;;;;;;12.23;5.43;;;;;;;8.91;100.00;100367.13;10500918;28;20456;-72
2021/12/29 01:58:10;;;;;;;14.52;4.95;;;;;;;8.93;100.00;100369.63;10500503;28;20033;-71
2021/12/29 02:03:10;;;;;;;9.82;4.57;;;;;;;8.95;100.00;100372.97;10500552;28;20036;-72
2021/12/29 02:08:11;;;;;;;15.90;4.30;;;;;;;8.94;100.00;100379.41;10499035;28;20064;-72
2021/12/29 02:13:12;;;;;;;6.10;4.07;;;;;;;8.92;100.00;100386.84;10498262;28;20032;-72
2021/12/29 02:18:14;;;;;;;18.50;5.07;;;;;;;8.91;100.00;100391.44;10499312;28;20112;-72
2021/12/29 02:23:25;;;;;;;13.43;6.30;;;;;;;8.92;100.00;100389.56;10499232;28;20044;-71
2021/12/29 02:28:35;;;;;;;16.30;5.63;;;;;;;8.92;100.00;100381.47;10499588;28;20431;-72
2021/12/29 02:33:36;;;;;;;12.68;6.90;;;;;;;8.92;100.00;100393.09;10500642;28;20025;-72
2021/12/29 02:38:42;;;;;;;12.57;5.68;;;;;;;8.90;100.00;100399.72;10500411;28;20079;-74
2021/12/29 02:43:43;;;;;;;9.13;6.55;;;;;;;8.88;100.00;100413.44;10500351;28;20042;-73
2021/12/29 02:48:54;;;;;;;10.13;5.57;;;;;;;8.87;100.00;100417.16;10499483;28;20052;-72
2021/12/29 02:53:55;;;;;;;13.73;5.03;;;;;;;8.85;100.00;100420.06;10501213;28;20044;-72
2021/12/29 02:58:56;;;;;;;15.90;6.05;;;;;;;8.86;100.00;100447.88;10500290;28;20372;-72
2021/12/29 03:03:56;;;;;;;12.05;6.40;;;;;;;8.82;100.00;100449.31;10499023;28;20086;-72
2021/12/29 03:08:57;;;;;;;21.15;6.03;;;;;;;8.82;100.00;100470.91;10497479;28;20036;-71
2021/12/29 03:13:57;;;;;;;9.25;5.55;;;;;;;8.81;100.00;100466.56;10498475;28;20082;-72
2021/12/29 03:18:57;;;;;;;6.07;4.25;;;;;;;8.74;100.00;100474.59;10498962;28;20467;-72
2021/12/29 03:23:58;;;;;;;10.02;4.53;;;;;;;8.79;100.00;100484.81;10498224;28;20075;-72
2021/12/29 03:28:59;;;;;;;9.02;4.25;;;;;;;8.76;100.00;100487.91;10496866;28;20127;-72
2021/12/29 03:34:00;;;;;;;28.38;4.32;;;;;;;8.77;100.00;100511.16;10504240;28;20033;-73
2021/12/29 03:39:00;;;;;;;14.27;4.50;;;;;;;8.76;100.00;100510.31;10507483;28;20506;-72
2021/12/29 03:44:01;;;;;;;11.48;5.18;;;;;;;8.73;100.00;100507.19;10505734;28;20123;-72
2021/12/29 03:49:01;;;;;;;18.20;4.70;;;;;;;8.73;100.00;100513.41;10505857;28;20024;-72
2021/12/29 03:54:04;;;;;;;15.25;4.93;;;;;;;8.71;100.00;100514.63;10504594;28;20056;-72
2021/12/29 03:59:05;;;;;;;19.42;4.68;;;;;;;8.68;100.00;100523.97;10505347;28;20426;-73
2021/12/29 04:04:05;;;;;;;10.95;4.43;;;;;;;8.69;100.00;100522.09;10505349;28;20040;-72
2021/12/29 04:09:05;;;;;;;6.72;3.85;;;;;;;8.69;100.00;100512.13;10505638;28;20055;-74
2021/12/29 04:14:06;;;;;;;9.55;5.80;;;;;;;8.66;100.00;100517.09;10504988;28;20048;-73
2021/12/29 04:19:08;;;;;;;12.00;5.70;;;;;;;8.65;100.00;100531.59;10504038;28;20040;-73
2021/12/29 04:24:09;;;;;;;13.45;6.50;;;;;;;8.60;100.00;100527.63;10503407;28;20033;-73
2021/12/29 04:29:10;;;;;;;26.63;5.38;;;;;;;8.63;100.00;100534.50;10519995;28;20020;-73
2021/12/29 04:34:11;;;;;;;13.52;4.03;;;;;;;8.65;100.00;100561.28;10504276;28;20057;-72
2021/12/29 04:39:11;;;;;;;18.42;5.00;;;;;;;8.66;100.00;100565.69;10502654;28;20379;-71
2021/12/29 04:44:12;;;;;;;14.70;4.22;;;;;;;8.63;100.00;100566.91;10504221;28;20102;-72
2021/12/29 04:49:14;;;;;;;18.30;5.82;;;;;;;8.65;100.00;100567.56;10501937;28;20032;-72
2021/12/29 04:54:14;;;;;;;11.32;5.03;;;;;;;8.66;100.00;100571.09;10501699;28;20044;-72
2021/12/29 04:59:16;;;;;;;6.90;5.45;;;;;;;8.64;100.00;100578.53;10500203;28;20043;-73
2021/12/29 05:04:57;;;;;;;13.00;5.55;;;;;;;8.66;100.00;100581.88;10499595;28;20111;-74
2021/12/29 05:09:42;;;;;;;20.33;8.00;;;;;;;8.68;100.00;100586.06;10498510;28;20075;-74
2021/12/29 05:14:43;;;;;;;12.95;7.60;;;;;;;8.68;100.00;100574.41;10499767;28;20071;-71
2021/12/29 05:19:43;;;;;;;12.13;5.80;;;;;;;8.68;100.00;100580.66;10500362;28;20479;-73
2021/12/29 05:24:44;;;;;;;17.85;5.53;;;;;;;8.67;100.00;100581.66;10499428;28;20067;-72
2021/12/29 05:29:44;;;;;;;7.75;5.80;;;;;;;8.67;100.00;100591.63;10501020;28;20041;-74
2021/12/29 05:34:44;;;;;;;14.32;5.05;;;;;;;8.65;100.00;100593.69;10499088;28;20448;-73
2021/12/29 05:39:45;;;;;;;13.23;5.05;;;;;;;8.64;100.00;100597.41;10498938;28;20058;-73
2021/12/29 05:44:45;;;;;;;13.30;5.30;;;;;;;8.63;100.00;100601.16;10461300;28;1088389;-74
2021/12/29 05:49:46;;;;;;;9.27;5.88;;;;;;;8.62;100.00;100608.44;10500420;28;20090;-74
2021/12/29 05:54:46;;;;;;;8.77;4.47;;;;;;;8.64;100.00;100608.22;10499760;28;20044;-74
2021/12/29 05:59:46;;;;;;;8.85;5.55;;;;;;;8.60;100.00;100610.47;10516740;28;20074;-73
2021/12/29 06:04:47;;;;;;;8.27;4.90;;;;;;;8.59;100.00;100617.75;10500528;28;20502;-72
2021/12/29 06:09:47;;;;;;;5.63;4.40;;;;;;;8.61;100.00;100607.59;10500299;28;20060;-74
2021/12/29 06:14:47;;;;;;;7.53;4.20;;;;;;;8.61;100.00;100612.13;10498848;28;20043;-72
2021/12/29 06:19:48;;;;;;;6.32;5.28;;;;;;;8.57;100.00;100611.69;10501018;28;20525;-73
2021/12/29 06:24:52;;;;;;;5.72;4.40;;;;;;;8.61;100.00;100618.38;10498372;28;20037;-73
2021/12/29 06:29:52;;;;;;;9.15;5.55;;;;;;;8.63;100.00;100618.19;10500689;28;20379;-72
2021/12/29 06:34:53;;;;;;;15.80;6.80;;;;;;;8.60;100.00;100627.50;10514793;28;20029;-72
2021/12/29 06:39:53;;;;;;;17.02;6.15;;;;;;;8.60;100.00;100623.97;10499952;28;20032;-71
2021/12/29 06:44:53;;;;;;;7.60;5.35;;;;;;;8.61;100.00;100626.50;10499012;28;20048;-72
2021/12/29 06:49:54;;;;;;;9.15;6.57;;;;;;;8.60;100.00;100629.38;10499149;28;20155;-72
2021/12/29 06:54:54;;;;;;;12.45;5.82;;;;;;;8.59;100.00;100642.03;10498645;28;20472;-71
2021/12/29 06:59:55;;;;;;;23.02;7.88;;;;;;;8.59;100.00;100643.91;10499536;28;20041;-71
2021/12/29 07:04:55;;;;;;;14.20;6.28;;;;;;;8.58;100.00;100663.78;10497877;28;20033;-71
2021/12/29 07:09:56;;;;;;;12.70;7.57;;;;;;;8.59;100.00;100668.19;10497724;28;20171;-73
2021/12/29 07:14:56;;;;;;;14.68;7.40;;;;;;;8.60;100.00;100676.06;10496969;28;20067;-74
2021/12/29 07:19:56;;;;;;;15.50;8.00;;;;;;;8.59;100.00;100687.91;10436286;28;20060;-72
2021/12/29 07:24:57;;;;;;;14.40;8.05;;;;;;;8.60;100.00;100678.78;10497824;28;20464;-73
2021/12/29 07:29:57;;;;;;;20.77;8.55;;;;;;;8.59;100.00;100670.88;10513207;28;20043;-72
2021/12/29 07:34:58;;;;;;;12.50;7.45;;;;;;;8.63;100.00;100680.25;10497231;28;20460;-72
2021/12/29 07:40:01;;;;;;;17.60;8.57;;;;;;;8.56;100.00;100668.56;10515253;28;20024;-74
2021/12/29 07:45:04;;;;;;;7.28;6.47;;;;;;;8.54;100.00;100660.63;10498356;28;20045;-74
2021/12/29 07:50:05;;;;;;;10.93;7.78;;;;;;;8.55;100.00;100662.34;10496302;28;20031;-74
2021/12/29 07:55:05;;;;;;;15.25;7.53;;;;;;;8.52;100.00;100662.72;10496781;28;20020;-73
2021/12/29 08:00:07;;;;;;;11.55;7.95;;;;;;;8.52;100.00;100675.34;10497106;28;20131;-73
2021/12/29 08:05:07;;;;;;;23.48;7.35;;;;;;;8.49;100.00;100660.41;10513467;28;20082;-73
2021/12/29 08:10:08;;;;;;;10.57;6.32;;;;;;;8.47;100.00;100665.13;10497217;28;20056;-73
2021/12/29 08:15:08;;;;;;;15.98;6.25;;;;;;;8.46;100.00;100684.22;10512111;28;20047;-73
2021/12/29 08:20:09;;;;;;;5.90;5.25;;;;;;;8.43;100.00;100666.53;10501131;28;20391;-72
2021/12/29 08:25:10;;;;;;;11.05;5.68;;;;;;;8.36;100.00;100657.50;10520013;28;20140;-74
2021/12/29 08:30:10;;;;;;;23.80;6.57;;;;;;;8.26;100.00;100671.25;10503899;28;20198;-74
2021/12/29 08:35:11;;;;;;;14.90;6.38;;;;;;;8.20;100.00;100679.28;10503604;28;20025;-73
2021/12/29 08:40:12;;;;;;;15.25;5.72;;;;;;;8.17;100.00;100680.50;10503061;28;20108;-74
2021/12/29 08:45:13;;;;;;;17.25;6.97;;;;;;;8.12;100.00;100686.44;10503767;28;20059;-74
2021/12/29 08:50:15;;;;;;;8.43;5.25;;;;;;;8.10;100.00;100664.25;10502675;28;20043;-74
2021/12/29 08:55:15;;;;;;;7.97;4.95;;;;;;;8.06;100.00;100662.09;10503430;28;20028;-74
2021/12/29 09:00:16;;;;;;;5.90;4.43;;;;;;;8.03;100.00;100666.00;10502398;28;20430;-74
2021/12/29 09:05:16;;;;;;;16.92;5.57;;;;;;;8.01;100.00;100662.66;10502766;28;20123;-74
2021/12/29 09:10:18;;;;;;;7.05;5.30;;;;;;;8.00;100.00;100668.22;10518199;28;20040;-73
2021/12/29 09:15:20;;;;;;;5.68;4.63;;;;;;;8.06;100.00;100652.13;10501065;28;20392;-73
2021/12/29 09:20:28;;;;;;;11.73;5.80;;;;;;;8.18;100.00;100648.97;10502417;28;20461;-74
2021/12/29 09:25:28;;;;;;;10.90;7.13;;;;;;;8.30;100.00;100653.69;10517013;28;20460;-76
2021/12/29 09:30:30;;;;;;;13.88;5.95;;;;;;;8.52;100.00;100662.72;10500478;28;20033;-76
2021/12/29 09:35:30;;;;;;;8.45;6.28;;;;;;;8.54;100.00;100665.22;10501987;28;20033;-75
2021/12/29 09:40:31;;;;;;;12.85;5.38;;;;;;;8.39;100.00;100649.03;10502244;28;20202;-73
2021/12/29 09:45:31;;;;;;;12.48;6.05;;;;;;;8.35;100.00;100653.13;10500169;28;20052;-75
2021/12/29 09:50:32;;;;;;;11.60;5.32;;;;;;;8.35;100.00;100647.72;10512509;28;20044;-76
2021/12/29 09:55:32;;;;;;;7.10;5.25;;;;;;;8.35;100.00;100636.94;10524626;28;20033;-76
2021/12/29 10:00:36;;;;;;;5.07;4.32;;;;;;;8.45;100.00;100631.25;10518959;28;20092;-75
2021/12/29 10:05:37;;;;;;;6.40;3.92;;;;;;;8.51;100.00;100623.25;10523295;28;20071;-77
2021/12/29 10:10:44;;;;;;;6.82;4.45;;;;;;;8.55;100.00;100607.50;10507118;28;20037;-77
2021/12/29 10:15:47;;;;;;;13.05;5.00;;;;;;;8.49;100.00;100614.53;10503535;28;20040;-77
2021/12/29 10:20:59;;;;;;;6.30;3.85;;;;;;;8.50;100.00;100610.78;10503907;28;20068;-77
2021/12/29 10:26:08;;;;;;;13.07;6.80;;;;;;;8.52;100.00;100614.13;10506910;28;20467;-76
2021/12/29 10:31:13;;;;;;;13.93;5.32;;;;;;;8.54;100.00;100620.16;10502042;28;20046;-77
2021/12/29 10:36:17;;;;;;;5.63;4.63;;;;;;;8.56;100.00;100615.41;10500011;28;20064;-76
2021/12/29 10:41:17;;;;;;;9.35;5.63;;;;;;;8.66;100.00;100627.75;10497827;28;20036;-74
2021/12/29 10:46:21;;;;;;;11.05;5.57;;;;;;;8.59;100.00;100611.50;10499272;28;20566;-76
2021/12/29 10:51:26;;;;;;;15.35;6.05;;;;;;;8.57;100.00;100613.53;10498240;28;20380;-75
2021/12/29 10:56:27;;;;;;;13.43;5.20;;;;;;;8.55;100.00;100604.78;10498686;28;20540;-73
2021/12/29 11:01:27;;;;;;;8.10;6.38;;;;;;;8.47;100.00;100600.38;10497903;28;20121;-75
2021/12/29 11:06:27;;;;;;;8.40;5.45;;;;;;;8.49;100.00;100570.50;10480683;28;20537;-75
2021/12/29 11:11:33;;;;;;;6.05;5.53;;;;;;;8.55;100.00;100556.22;10497901;28;20086;-74
2021/12/29 11:16:33;;;;;;;9.77;6.90;;;;;;;8.70;100.00;100556.16;10498194;28;20503;-76
2021/12/29 11:21:37;;;;;;;6.47;5.85;;;;;;;8.73;100.00;100562.00;10513434;28;20093;-75
2021/12/29 11:26:37;;;;;;;11.10;8.07;;;;;;;8.71;100.00;100555.13;10480883;28;20060;-74
2021/12/29 11:31:49;;;;;;;16.85;8.32;;;;;;;8.64;100.00;100541.56;10480582;28;20052;-75
2021/12/29 11:37:02;;;;;;;15.77;8.35;;;;;;;8.70;100.00;100550.75;10513698;28;20033;-75
2021/12/29 11:42:03;;;;;;;12.27;7.03;;;;;;;8.71;100.00;100544.31;10497693;28;20035;-75
2021/12/29 11:47:05;;;;;;;13.63;7.78;;;;;;;8.66;100.00;100533.28;10512486;28;20127;-74
2021/12/29 11:52:05;;;;;;;10.85;7.95;;;;;;;8.66;100.00;100549.50;10499980;28;20040;-75
2021/12/29 11:57:13;;;;;;;13.35;8.07;;;;;;;8.63;100.00;100512.91;10504983;28;20116;-73
2021/12/29 12:02:23;;;;;;;13.85;7.57;;;;;;;8.58;100.00;100510.81;10505607;28;20037;-76
2021/12/29 12:07:24;;;;;;;13.45;6.93;;;;;;;8.64;100.00;100502.94;10504584;28;20028;-75
2021/12/29 12:12:35;;;;;;;15.75;7.72;;;;;;;8.67;100.00;100514.19;10509881;28;20044;-75
2021/12/29 12:17:35;;;;;;;13.38;6.95;;;;;;;8.73;100.00;100502.63;10527314;28;20304;-72
2021/12/29 12:22:52;;;;;;;9.27;7.57;;;;;;;8.76;100.00;100509.50;10503333;28;20111;-75
2021/12/29 12:28:00;;;;;;;6.10;5.15;;;;;;;8.67;100.00;100498.00;10504045;28;20043;-73
2021/12/29 12:33:14;;;;;;;11.13;5.72;;;;;;;8.73;100.00;100490.97;10503691;28;20037;-74
2021/12/29 12:38:19;;;;;;;9.43;7.00;;;;;;;8.66;100.00;100477.44;10502821;28;20064;-74
2021/12/29 12:43:19;;;;;;;10.98;7.28;;;;;;;8.63;100.00;100453.53;10519630;28;20066;-76
2021/12/29 12:48:31;;;;;;;11.13;7.82;;;;;;;8.72;100.00;100456.94;10502179;28;20117;-72
2021/12/29 12:53:33;;;;;;;13.10;8.48;;;;;;;8.65;100.00;100451.50;10503334;28;20111;-72
2021/12/29 12:58:40;;;;;;;17.50;8.85;;;;;;;8.56;100.00;100456.19;10503921;28;20036;-72
2021/12/29 13:03:41;;;;;;;9.88;8.68;;;;;;;8.54;100.00;100435.81;10500742;28;20028;-73
2021/12/29 13:08:44;;;;;;;15.45;9.05;;;;;;;8.53;100.00;100429.59;10502266;28;20090;-72
2021/12/29 13:13:46;;;;;;;12.68;8.75;;;;;;;8.54;100.00;100433.94;10502058;28;20033;-72
2021/12/29 13:18:46;;;;;;;15.60;9.23;;;;;;;8.59;100.00;100436.06;10500516;28;20372;-72
2021/12/29 13:23:47;;;;;;;12.85;10.20;;;;;;;8.55;100.00;100419.44;10500894;28;20126;-74
2021/12/29 13:28:49;;;;;;;13.95;8.77;;;;;;;8.51;100.00;100411.91;10499793;28;20113;-76
2021/12/29 13:33:53;;;;;;;16.67;10.45;;;;;;;8.48;100.00;100391.53;10501649;28;20033;-72
2021/12/29 13:38:56;;;;;;;23.80;11.32;;;;;;;8.51;100.00;100390.31;10500307;28;20091;-73
2021/12/29 13:43:57;;;;;;;28.08;13.77;;;;;;;8.55;100.00;100373.56;10499838;28;20047;-74
2021/12/29 13:48:59;;;;;;;15.30;12.40;;;;;;;8.59;100.00;100355.94;10502216;28;20086;-71
2021/12/29 13:54:02;;;;;;;22.55;10.13;;;;;;;8.63;100.00;100350.97;10501067;28;20134;-73
2021/12/29 13:59:07;;;;;;;15.45;10.68;;;;;;;8.67;100.00;100330.63;10500187;28;20128;-73
2021/12/29 14:04:11;;;;;;;12.02;9.82;;;;;;;8.68;100.00;100326.94;10500857;28;20578;-74
2021/12/29 14:09:12;;;;;;;18.85;11.77;;;;;;;8.64;100.00;100311.31;10515427;28;20522;-69
2021/12/29 14:14:12;;;;;;;10.13;9.13;;;;;;;8.70;100.00;100338.34;10499523;28;20082;-72
2021/12/29 14:19:15;;;;;;;12.80;9.50;;;;;;;8.77;100.00;100341.06;10499158;28;20530;-73
2021/12/29 14:24:18;;;;;;;10.77;8.25;;;;;;;8.79;100.00;100344.41;10498191;28;20475;-78
2021/12/29 14:29:24;;;;;;;10.77;9.57;;;;;;;8.82;100.00;100350.25;10499543;28;20375;-73
2021/12/29 14:34:36;;;;;;;12.87;8.23;;;;;;;8.91;100.00;100345.53;10499894;28;20043;-75
2021/12/29 14:39:38;;;;;;;10.90;7.53;;;;;;;8.90;100.00;100330.34;10446867;28;20648;-72
2021/12/29 14:45:07;;;;;;;7.38;4.65;;;;;;;9.00;100.00;100330.00;10514871;28;20128;-77
2021/12/29 14:50:10;;;;;;;4.93;4.45;;;;;;;8.95;100.00;100314.38;10499991;28;20389;-74
2021/12/29 14:55:18;;;;;;;5.57;5.07;;;;;;;9.00;100.00;100311.91;10499548;28;20123;-74
2021/12/29 15:00:20;;;;;;;5.78;5.28;;;;;;;9.07;100.00;100310.06;10499002;28;20044;-76
2021/12/29 15:05:23;;;;;;;7.53;5.05;;;;;;;9.14;100.00;100314.66;10497690;28;20042;-74
2021/12/29 15:10:36;;;;;;;6.85;6.28;;;;;;;9.16;100.00;100326.94;10498439;28;20365;-74
2021/12/29 15:15:37;;;;;;;8.25;6.65;;;;;;;9.19;100.00;100333.78;10498202;28;20469;-76
2021/12/29 15:20:50;;;;;;;8.18;6.25;;;;;;;9.23;100.00;100318.84;10497755;28;20040;-74
2021/12/29 15:25:51;;;;;;;9.77;8.88;;;;;;;9.38;100.00;100332.19;10498520;28;20456;-74
2021/12/29 15:30:53;;;;;;;11.88;8.32;;;;;;;9.49;100.00;100320.78;10504941;28;20036;-73
2021/12/29 15:35:54;;;;;;;9.77;8.60;;;;;;;9.57;100.00;100322.47;10505895;28;20127;-73
2021/12/29 15:40:57;;;;;;;13.20;10.95;;;;;;;9.61;100.00;100329.16;10505672;28;20185;-72
2021/12/29 15:45:57;;;;;;;11.20;10.02;;;;;;;9.63;100.00;100321.63;10505889;28;20561;-73
2021/12/29 15:50:59;;;;;;;8.95;8.10;;;;;;;9.75;100.00;100328.09;10505814;28;20068;-73
2021/12/29 15:56:00;;;;;;;12.32;8.73;;;;;;;9.84;100.00;100343.09;10505694;28;20033;-73
2021/12/29 16:01:00;;;;;;;10.63;9.52;;;;;;;9.86;100.00;100338.34;10503692;28;20037;-73
2021/12/29 16:06:01;;;;;;;12.50;10.20;;;;;;;9.98;100.00;100333.94;10505612;28;20040;-72
2021/12/29 16:11:02;;;;;;;12.18;8.70;;;;;;;10.06;100.00;100351.84;10505435;28;20119;-72
2021/12/29 16:16:03;;;;;;;13.60;10.88;;;;;;;10.22;100.00;100356.03;10504256;28;20033;-71
2021/12/29 16:21:03;;;;;;;19.35;8.48;;;;;;;10.39;100.00;100349.16;10504395;28;20090;-72
2021/12/29 16:26:04;;;;;;;12.35;8.30;;;;;;;10.61;100.00;100359.75;10503186;28;20451;-72
2021/12/29 16:31:04;;;;;;;18.83;14.57;;;;;;;10.80;100.00;100344.50;10504098;28;20032;-73
2021/12/29 16:36:05;;;;;;;45.55;35.33;;;;;;;10.96;100.00;100354.06;10504461;28;20522;-74
2021/12/29 16:41:05;;;;;;;20.67;10.27;;;;;;;10.99;100.00;100367.16;10518724;28;20480;-74
2021/12/29 16:46:05;;;;;;;26.08;11.82;;;;;;;11.00;100.00;100363.41;10503889;28;20147;-73
2021/12/29 16:51:06;;;;;;;21.02;8.00;;;;;;;11.00;100.00;100374.25;10502768;28;20032;-74
2021/12/29 16:56:06;;;;;;;27.80;6.80;;;;;;;10.98;100.00;100382.59;10501899;28;20055;-73
2021/12/29 17:01:07;;;;;;;30.65;8.10;;;;;;;11.02;100.00;100378.41;10503435;28;20032;-74
2021/12/29 17:06:08;;;;;;;26.63;6.35;;;;;;;11.07;100.00;100385.88;10502400;28;20047;-72
2021/12/29 17:11:09;;;;;;;31.23;7.10;;;;;;;11.14;100.00;100406.53;10484475;28;20063;-74
2021/12/29 17:16:09;;;;;;;28.63;5.93;;;;;;;11.15;100.00;100401.94;10503141;28;20083;-74
2021/12/29 17:21:09;;;;;;;24.00;7.90;;;;;;;11.07;100.00;100372.34;10502165;28;20123;-74
2021/12/29 17:26:10;;;;;;;19.08;6.35;;;;;;;10.99;100.00;100403.22;10502074;28;20047;-74
2021/12/29 17:31:10;;;;;;;25.38;7.05;;;;;;;10.81;100.00;100433.66;10502916;28;20037;-73
2021/12/29 17:36:11;;;;;;;26.50;7.30;;;;;;;10.70;100.00;100429.72;10501954;28;20404;-73
2021/12/29 17:41:11;;;;;;;39.20;7.45;;;;;;;10.60;100.00;100458.28;10501286;28;20047;-74
2021/12/29 17:46:12;;;;;;;34.15;8.10;;;;;;;10.54;100.00;100453.69;10501280;28;20053;-73
2021/12/29 17:51:12;;;;;;;21.17;8.00;;;;;;;10.48;100.00;100467.03;10499245;28;20072;-72
2021/12/29 17:56:14;;;;;;;25.75;7.93;;;;;;;10.40;100.00;100480.78;10500433;28;20033;-73
2021/12/29 18:01:16;;;;;;;19.38;8.18;;;;;;;10.34;100.00;100489.72;10516069;28;20041;-72
2021/12/29 18:06:16;;;;;;;24.80;7.70;;;;;;;10.36;100.00;100505.72;10500354;28;20064;-72
2021/12/29 18:11:17;;;;;;;21.77;8.38;;;;;;;10.24;100.00;100497.34;10500041;28;20419;-73
2021/12/29 18:16:17;;;;;;;44.20;9.60;;;;;;;10.28;100.00;100506.78;10500290;28;20131;-72
2021/12/29 18:21:18;;;;;;;26.38;8.73;;;;;;;10.17;100.00;100521.69;10500423;28;20120;-73
2021/12/29 18:26:18;;;;;;;23.30;7.60;;;;;;;10.20;100.00;100536.69;10500275;28;20036;-73
2021/12/29 18:31:18;;;;;;;31.73;10.52;;;;;;;10.19;100.00;100548.56;10500966;28;20036;-74
2021/12/29 18:36:20;;;;;;;38.55;10.20;;;;;;;10.21;100.00;100547.31;10499169;28;20029;-73
2021/12/29 18:41:20;;;;;;;25.73;9.20;;;;;;;10.28;100.00;100550.06;10497411;28;20036;-73
2021/12/29 18:46:22;;;;;;;25.58;8.77;;;;;;;10.26;100.00;100562.97;10498379;28;20089;-72
2021/12/29 18:51:22;;;;;;;23.58;7.65;;;;;;;10.25;100.00;100582.91;10498693;28;20072;-72
2021/12/29 18:56:22;;;;;;;38.92;10.05;;;;;;;10.29;100.00;100589.63;10499340;28;20119;-73
2021/12/29 19:01:23;;;;;;;41.55;9.23;;;;;;;10.26;100.00;100576.50;10498378;28;20036;-72
2021/12/29 19:06:23;;;;;;;27.48;7.78;;;;;;;10.21;100.00;100600.56;10498001;28;20040;-72
2021/12/29 19:11:25;;;;;;;77.90;50.40;;;;;;;10.15;100.00;100610.38;10498386;28;20463;-72
2021/12/29 19:16:28;;;;;;;69.05;19.60;;;;;;;10.11;100.00;100619.91;10498267;28;20094;-72
2021/12/29 19:21:28;;;;;;;27.65;11.18;;;;;;;10.05;100.00;100628.84;10497719;28;20545;-73
2021/12/29 19:26:29;;;;;;;27.05;11.50;;;;;;;10.06;100.00;100640.50;10497640;28;20044;-72
2021/12/29 19:31:29;;;;;;;47.85;18.75;;;;;;;10.00;100.00;100672.72;10497715;28;20029;-72
2021/12/29 19:36:30;;;;;;;31.58;9.63;;;;;;;9.93;100.00;100690.78;10497624;28;20033;-71
2021/12/29 19:41:31;;;;;;;26.65;10.25;;;;;;;9.81;100.00;100708.59;10497839;28;20044;-73
2021/12/29 19:46:33;;;;;;;34.00;11.15;;;;;;;9.76;100.00;100716.44;10513277;28;20365;-71
2021/12/29 19:51:33;;;;;;;60.83;15.27;;;;;;;9.67;100.00;100729.28;10497076;28;20095;-71
2021/12/29 19:56:34;;;;;;;31.48;10.73;;;;;;;9.62;100.00;100729.03;10497116;28;20072;-71
2021/12/29 20:01:34;;;;;;;54.78;13.30;;;;;;;9.60;100.00;100746.47;10497579;28;20449;-72
2021/12/29 20:06:35;;;;;;;59.90;14.23;;;;;;;9.51;100.00;100752.03;10498033;28;20056;-71
2021/12/29 20:11:35;;;;;;;63.80;14.40;;;;;;;9.44;100.00;100742.16;10496065;28;20035;-71
2021/12/29 20:16:35;;;;;;;49.80;12.45;;;;;;;9.38;100.00;100757.31;10501204;28;20040;-72
2021/12/29 20:21:38;;;;;;;50.65;14.63;;;;;;;9.32;100.00;100755.38;10505440;28;20033;-72
2021/12/29 20:26:38;;;;;;;75.35;17.67;;;;;;;9.26;100.00;100764.25;10504542;28;20032;-71
2021/12/29 20:31:39;;;;;;;58.17;15.43;;;;;;;9.28;100.00;100764.88;10519601;28;20036;-71
2021/12/29 20:36:42;;;;;;;51.83;14.68;;;;;;;9.24;100.00;100782.50;10502655;28;20499;-72
2021/12/29 20:41:43;;;;;;;59.05;13.18;;;;;;;9.28;100.00;100791.91;10503719;28;20032;-73
2021/12/29 20:46:43;;;;;;;46.53;13.30;;;;;;;9.27;100.00;100801.06;10503877;28;20045;-73
2021/12/29 20:51:44;;;;;;;53.10;14.23;;;;;;;9.28;100.00;100811.69;10501517;28;20115;-71
2021/12/29 20:56:44;;;;;;;41.40;12.48;;;;;;;9.24;100.00;100812.25;10501163;28;20040;-73
2021/12/29 21:01:45;;;;;;;50.35;14.13;;;;;;;9.18;100.00;100826.50;10502825;28;20087;-72
2021/12/29 21:06:45;;;;;;;29.73;11.68;;;;;;;9.18;100.00;100858.94;10518028;28;20452;-72
2021/12/29 21:11:46;;;;;;;51.53;12.30;;;;;;;9.07;100.00;100871.91;10501236;28;20040;-72
2021/12/29 21:16:46;;;;;;;45.67;12.32;;;;;;;9.02;100.00;100879.72;10502309;28;20041;-70
2021/12/29 21:21:47;;;;;;;31.83;10.50;;;;;;;8.94;100.00;100890.63;10502195;28;20036;-72
2021/12/29 21:26:47;;;;;;;37.35;12.55;;;;;;;8.87;100.00;100896.97;10502685;28;20384;-71
2021/12/29 21:31:47;;;;;;;25.48;10.43;;;;;;;8.83;100.00;100910.00;10500362;28;20078;-71
2021/12/29 21:36:48;;;;;;;37.10;13.75;;;;;;;8.91;100.00;100928.81;10501156;28;20392;-71
2021/12/29 21:41:48;;;;;;;37.05;13.02;;;;;;;8.97;100.00;100935.34;10501196;28;20112;-72
2021/12/29 21:46:49;;;;;;;36.50;11.82;;;;;;;9.05;100.00;100946.88;10501713;28;20059;-72
2021/12/29 21:51:50;;;;;;;41.38;16.40;;;;;;;9.18;100.00;100964.31;10501770;28;20492;-72
2021/12/29 21:56:50;;;;;;;32.08;12.63;;;;;;;9.26;100.00;100962.34;10501148;28;20123;-72
2021/12/29 22:01:51;;;;;;;40.70;16.90;;;;;;;9.31;100.00;100964.47;10517245;28;20586;-70
2021/12/29 22:06:51;;;;;;;26.80;15.05;;;;;;;9.37;100.00;100963.72;10516231;28;20469;-69
2021/12/29 22:11:52;;;;;;;48.22;17.33;;;;;;;9.41;100.00;100969.59;10499454;28;20070;-70
2021/12/29 22:16:52;;;;;;;26.63;14.50;;;;;;;9.43;100.00;100976.50;10499790;28;20424;-71
2021/12/29 22:21:52;;;;;;;55.78;14.60;;;;;;;9.49;100.00;100972.19;10500089;28;20047;-72
2021/12/29 22:26:53;;;;;;;40.75;15.07;;;;;;;9.49;100.00;100981.16;10515312;28;20036;-70
2021/12/29 22:31:53;;;;;;;34.72;15.43;;;;;;;9.55;100.00;100976.84;10499849;28;20469;-71
2021/12/29 22:36:54;;;;;;;23.63;12.55;;;;;;;9.58;100.00;100983.75;10498602;28;20419;-72
2021/12/29 22:41:54;;;;;;;34.03;14.43;;;;;;;9.46;100.00;100989.63;10499107;28;20032;-72
2021/12/29 22:46:54;;;;;;;34.10;11.63;;;;;;;9.39;100.00;101010.34;10498362;28;20392;-72